Time;durP1;ratioP1;P1;durP2;ratioP2;P2;SDS_P1;SDS_P2;PMS_P1;PMS_P2;Temp;Humidity;BMP_temperature;BMP_pressure;BME280_temperature;BME280_humidity;BME280_pressure;Samples;Min_cycle;Max_cycle;Signal;HPM_P1;HPM_P2
2021/04/04 00:00:45;;;;;;;7.45;1.80;;;;;;;;;;4962123;28;20109;-57
2021/04/04 00:03:11;;;;;;;12.13;2.47;;;;;;;;;;4962339;28;20051;-54
2021/04/04 00:05:37;;;;;;;6.72;1.90;;;;;;;;;;4961075;28;20049;-58
2021/04/04 00:08:03;;;;;;;8.63;1.52;;;;;;;;;;4962918;28;20154;-59
2021/04/04 00:10:29;;;;;;;6.78;1.70;;;;;;;;;;4959211;28;20035;-57
2021/04/04 00:12:55;;;;;;;11.93;2.03;;;;;;;;;;4962098;28;20055;-57
2021/04/04 00:15:21;;;;;;;5.78;1.48;;;;;;;;;;4961920;28;20047;-57
2021/04/04 00:17:47;;;;;;;7.63;1.40;;;;;;;;;;4960752;28;20496;-55
2021/04/04 00:20:14;;;;;;;9.98;1.58;;;;;;;;;;4959435;28;20161;-59
2021/04/04 00:22:40;;;;;;;7.70;1.63;;;;;;;;;;4959979;28;20038;-59
2021/04/04 00:25:07;;;;;;;6.32;1.48;;;;;;;;;;4961143;28;20125;-59
2021/04/04 00:27:33;;;;;;;8.38;1.58;;;;;;;;;;4960579;28;20053;-58
2021/04/04 00:30:00;;;;;;;8.50;2.45;;;;;;;;;;4958870;28;20055;-59
2021/04/04 00:32:26;;;;;;;11.77;2.10;;;;;;;;;;4960880;28;20998;-59
2021/04/04 00:34:52;;;;;;;6.43;1.50;;;;;;;;;;4961592;28;20035;-57
2021/04/04 00:37:18;;;;;;;9.02;2.63;;;;;;;;;;4960518;28;20042;-58
2021/04/04 00:39:44;;;;;;;7.70;1.88;;;;;;;;;;4961275;28;20039;-59
2021/04/04 00:42:10;;;;;;;8.15;2.80;;;;;;;;;;4961959;28;20129;-58
2021/04/04 00:44:36;;;;;;;11.35;2.00;;;;;;;;;;4961221;28;20109;-59
2021/04/04 00:47:02;;;;;;;11.07;3.92;;;;;;;;;;4961143;28;20035;-59
2021/04/04 00:49:27;;;;;;;9.75;2.38;;;;;;;;;;4961623;28;20378;-58
2021/04/04 00:51:53;;;;;;;9.75;2.08;;;;;;;;;;4962114;28;20042;-58
2021/04/04 00:54:20;;;;;;;6.65;1.73;;;;;;;;;;4960095;28;20141;-55
2021/04/04 00:56:46;;;;;;;9.15;1.83;;;;;;;;;;4962043;28;20129;-57
2021/04/04 00:59:12;;;;;;;11.73;1.38;;;;;;;;;;4961969;28;20074;-58
2021/04/04 01:01:38;;;;;;;15.20;6.32;;;;;;;;;;4962352;28;20084;-60
2021/04/04 01:04:04;;;;;;;12.80;4.15;;;;;;;;;;4963587;28;20939;-60
2021/04/04 01:06:31;;;;;;;13.15;3.70;;;;;;;;;;4960172;28;20423;-57
2021/04/04 01:08:57;;;;;;;9.50;2.50;;;;;;;;;;4963582;28;20425;-60
2021/04/04 01:11:36;;;;;;;6.47;1.75;;;;;;;;;;4965147;28;20037;-57
2021/04/04 01:14:18;;;;;;;8.80;1.90;;;;;;;;;;4964245;28;20033;-59
2021/04/04 01:16:45;;;;;;;13.15;1.95;;;;;;;;;;4964180;28;20047;-60
2021/04/04 01:19:11;;;;;;;10.90;2.25;;;;;;;;;;4964623;28;20038;-60
2021/04/04 01:21:55;;;;;;;11.80;2.30;;;;;;;;;;4963313;28;20101;-60
2021/04/04 01:24:24;;;;;;;5.05;1.27;;;;;;;;;;4963562;28;20428;-58
2021/04/04 01:27:04;;;;;;;7.93;1.83;;;;;;;;;;4963497;28;20051;-58
2021/04/04 01:29:32;;;;;;;14.07;2.10;;;;;;;;;;4963288;28;20045;-58
2021/04/04 01:31:58;;;;;;;13.13;1.98;;;;;;;;;;4963269;28;20039;-55
2021/04/04 01:34:25;;;;;;;7.65;1.35;;;;;;;;;;4963372;28;20034;-57
2021/04/04 01:36:53;;;;;;;8.63;1.50;;;;;;;;;;4964239;28;20038;-57
2021/04/04 01:39:21;;;;;;;7.10;1.42;;;;;;;;;;4962401;28;20053;-58
2021/04/04 01:41:48;;;;;;;10.00;1.92;;;;;;;;;;4962603;28;20076;-59
2021/04/04 01:44:16;;;;;;;8.38;1.50;;;;;;;;;;4963511;28;20047;-59
2021/04/04 01:46:45;;;;;;;17.85;2.25;;;;;;;;;;4962486;28;20047;-58
2021/04/04 01:49:12;;;;;;;14.43;2.17;;;;;;;;;;4964662;28;20721;-59
2021/04/04 01:51:38;;;;;;;20.92;3.17;;;;;;;;;;4962986;28;20038;-58
2021/04/04 01:54:05;;;;;;;12.07;3.10;;;;;;;;;;4964454;28;20034;-59
2021/04/04 01:56:31;;;;;;;17.70;3.42;;;;;;;;;;4960957;28;20134;-58
2021/04/04 01:58:58;;;;;;;13.95;2.22;;;;;;;;;;4963485;28;20153;-58
2021/04/04 02:01:24;;;;;;;10.05;2.25;;;;;;;;;;4964385;28;20042;-58
2021/04/04 02:03:50;;;;;;;6.88;2.05;;;;;;;;;;4963345;28;20038;-56
2021/04/04 02:06:16;;;;;;;13.48;2.25;;;;;;;;;;4962421;28;20529;-58
2021/04/04 02:08:43;;;;;;;10.93;1.90;;;;;;;;;;4962053;28;20061;-58
2021/04/04 02:11:14;;;;;;;18.55;4.18;;;;;;;;;;4965338;28;20128;-56
2021/04/04 02:13:40;;;;;;;12.02;3.97;;;;;;;;;;4963850;28;20073;-58
2021/04/04 02:16:07;;;;;;;12.02;2.20;;;;;;;;;;4963231;28;20122;-58
2021/04/04 02:18:33;;;;;;;18.08;5.03;;;;;;;;;;4962586;28;20031;-57
2021/04/04 02:20:59;;;;;;;12.10;4.60;;;;;;;;;;4963157;28;20080;-56
2021/04/04 02:23:27;;;;;;;12.82;3.47;;;;;;;;;;4963668;28;20420;-58
2021/04/04 02:25:54;;;;;;;12.55;3.67;;;;;;;;;;4964842;28;20403;-58
2021/04/04 02:28:20;;;;;;;10.40;2.28;;;;;;;;;;4964298;28;20062;-58
2021/04/04 02:30:46;;;;;;;8.02;1.70;;;;;;;;;;4963364;28;20066;-57
2021/04/04 02:33:18;;;;;;;8.13;1.70;;;;;;;;;;4962310;28;20042;-58
2021/04/04 02:35:45;;;;;;;9.57;2.17;;;;;;;;;;4962031;28;20027;-56
2021/04/04 02:38:13;;;;;;;10.95;1.73;;;;;;;;;;4961602;28;20523;-56
2021/04/04 02:40:40;;;;;;;11.20;1.80;;;;;;;;;;4962368;28;21033;-57
2021/04/04 02:43:08;;;;;;;14.27;2.00;;;;;;;;;;4960916;28;20042;-57
2021/04/04 02:45:36;;;;;;;12.25;1.85;;;;;;;;;;4964016;28;20045;-60
2021/04/04 02:48:04;;;;;;;10.43;2.00;;;;;;;;;;4960871;28;20492;-56
2021/04/04 02:50:30;;;;;;;9.30;1.80;;;;;;;;;;4962554;28;20054;-55
2021/04/04 02:53:00;;;;;;;8.35;1.80;;;;;;;;;;4962581;28;20760;-57
2021/04/04 02:55:28;;;;;;;11.27;1.92;;;;;;;;;;4960146;28;20046;-56
2021/04/04 02:57:55;;;;;;;14.23;2.10;;;;;;;;;;4959386;28;20039;-57
2021/04/04 03:00:21;;;;;;;10.10;1.85;;;;;;;;;;4960384;28;20038;-58
2021/04/04 03:02:47;;;;;;;9.27;1.80;;;;;;;;;;4961514;28;20956;-56
2021/04/04 03:05:13;;;;;;;15.85;2.10;;;;;;;;;;4963216;28;20047;-56
2021/04/04 03:07:44;;;;;;;10.93;2.00;;;;;;;;;;4959115;28;20122;-58
2021/04/04 03:10:11;;;;;;;7.68;1.65;;;;;;;;;;4960977;28;20084;-55
2021/04/04 03:12:37;;;;;;;16.23;3.17;;;;;;;;;;4959811;28;20328;-60
2021/04/04 03:15:05;;;;;;;10.07;2.08;;;;;;;;;;4963336;28;22120;-56
2021/04/04 03:17:32;;;;;;;14.95;2.95;;;;;;;;;;4968990;28;20038;-55
2021/04/04 03:19:58;;;;;;;7.30;2.00;;;;;;;;;;4975108;28;22104;-57
2021/04/04 03:22:25;;;;;;;10.98;2.15;;;;;;;;;;4961212;28;20052;-57
2021/04/04 03:24:52;;;;;;;8.27;1.75;;;;;;;;;;4959777;28;20499;-59
2021/04/04 03:27:18;;;;;;;11.43;1.75;;;;;;;;;;4960482;28;20072;-58
2021/04/04 03:29:45;;;;;;;15.88;2.20;;;;;;;;;;4962430;28;20065;-55
2021/04/04 03:32:11;;;;;;;22.02;2.30;;;;;;;;;;4962097;28;20039;-55
2021/04/04 03:34:38;;;;;;;14.45;2.90;;;;;;;;;;4959736;28;20039;-58
2021/04/04 03:37:04;;;;;;;16.48;3.30;;;;;;;;;;4959991;28;20063;-57
2021/04/04 03:39:30;;;;;;;13.88;2.15;;;;;;;;;;4991097;28;20165;-59
2021/04/04 03:41:58;;;;;;;14.95;2.00;;;;;;;;;;4958555;28;20047;-56
2021/04/04 03:44:28;;;;;;;13.60;2.28;;;;;;;;;;4960187;28;20505;-54
2021/04/04 03:46:55;;;;;;;12.20;2.00;;;;;;;;;;4960262;28;20039;-56
2021/04/04 03:49:21;;;;;;;8.70;2.28;;;;;;;;;;4959268;28;20059;-54
2021/04/04 03:51:47;;;;;;;18.20;2.80;;;;;;;;;;4957157;28;20070;-57
2021/04/04 03:54:14;;;;;;;13.13;2.92;;;;;;;;;;4959570;28;20043;-57
2021/04/04 03:56:43;;;;;;;11.48;2.40;;;;;;;;;;4949284;28;20138;-57
2021/04/04 03:59:10;;;;;;;10.73;3.28;;;;;;;;;;4962432;28;20475;-57
2021/04/04 04:01:38;;;;;;;11.20;3.00;;;;;;;;;;4960688;28;20061;-57
2021/04/04 04:04:07;;;;;;;13.57;2.88;;;;;;;;;;4961877;28;20041;-58
2021/04/04 04:06:34;;;;;;;12.95;2.47;;;;;;;;;;4953266;28;20507;-56
2021/04/04 04:09:03;;;;;;;13.57;3.20;;;;;;;;;;4956441;28;20058;-56
2021/04/04 04:11:29;;;;;;;18.85;3.25;;;;;;;;;;4992434;28;20104;-57
2021/04/04 04:13:55;;;;;;;14.13;2.47;;;;;;;;;;4962556;28;20054;-56
2021/04/04 04:16:21;;;;;;;14.70;2.10;;;;;;;;;;4959583;28;20081;-58
2021/04/04 04:18:47;;;;;;;14.27;2.17;;;;;;;;;;4963655;28;20084;-57
2021/04/04 04:21:14;;;;;;;18.40;2.60;;;;;;;;;;4962770;28;20050;-53
2021/04/04 04:23:40;;;;;;;14.27;2.28;;;;;;;;;;4960753;28;20097;-54
2021/04/04 04:26:08;;;;;;;8.60;1.90;;;;;;;;;;4962386;28;20084;-57
2021/04/04 04:28:35;;;;;;;16.63;2.60;;;;;;;;;;4993848;28;20068;-56
2021/04/04 04:31:02;;;;;;;15.50;2.60;;;;;;;;;;4963261;28;20089;-56
2021/04/04 04:33:29;;;;;;;14.60;2.28;;;;;;;;;;4962132;28;20057;-53
2021/04/04 04:35:56;;;;;;;15.13;4.07;;;;;;;;;;4962256;28;20043;-54
2021/04/04 04:38:22;;;;;;;14.85;2.67;;;;;;;;;;4961635;28;20049;-57
2021/04/04 04:40:48;;;;;;;12.25;2.67;;;;;;;;;;4963869;28;20492;-58
2021/04/04 04:43:15;;;;;;;17.30;2.80;;;;;;;;;;4964380;28;20054;-55
2021/04/04 04:45:42;;;;;;;16.25;3.55;;;;;;;;;;4965048;28;20039;-56
2021/04/04 04:48:08;;;;;;;17.13;3.00;;;;;;;;;;4965790;28;20042;-54
2021/04/04 04:50:35;;;;;;;17.13;4.43;;;;;;;;;;4965067;28;20096;-58
2021/04/04 04:53:01;;;;;;;18.95;3.17;;;;;;;;;;4965640;28;20046;-58
2021/04/04 04:55:27;;;;;;;12.50;3.22;;;;;;;;;;4965301;28;20078;-58
2021/04/04 04:57:57;;;;;;;12.90;2.92;;;;;;;;;;4966387;28;20094;-58
2021/04/04 05:00:23;;;;;;;18.80;3.40;;;;;;;;;;4965602;28;20038;-58
2021/04/04 05:02:49;;;;;;;12.95;3.05;;;;;;;;;;4966673;28;20052;-57
2021/04/04 05:05:16;;;;;;;13.80;3.20;;;;;;;;;;4965878;28;20058;-58
2021/04/04 05:07:43;;;;;;;20.05;4.40;;;;;;;;;;4964877;28;20078;-55
2021/04/04 05:10:10;;;;;;;16.30;4.72;;;;;;;;;;4965584;28;20381;-57
2021/04/04 05:12:42;;;;;;;14.90;4.32;;;;;;;;;;4965481;28;20506;-56
2021/04/04 05:15:09;;;;;;;15.93;3.80;;;;;;;;;;4965568;28;20069;-56
2021/04/04 05:17:35;;;;;;;20.30;5.72;;;;;;;;;;4965283;28;20042;-57
2021/04/04 05:20:02;;;;;;;20.10;3.95;;;;;;;;;;4965580;28;20035;-57
2021/04/04 05:22:28;;;;;;;15.65;3.60;;;;;;;;;;4964501;28;20078;-57
2021/04/04 05:24:56;;;;;;;23.58;4.97;;;;;;;;;;4962627;28;20046;-56
2021/04/04 05:27:22;;;;;;;28.35;5.07;;;;;;;;;;4964014;28;20042;-56
2021/04/04 05:29:48;;;;;;;20.55;5.22;;;;;;;;;;4965384;28;20058;-57
2021/04/04 05:32:14;;;;;;;20.77;4.55;;;;;;;;;;4962324;28;20842;-57
2021/04/04 05:34:40;;;;;;;22.80;5.10;;;;;;;;;;4963410;28;20456;-57
2021/04/04 05:37:07;;;;;;;25.05;4.15;;;;;;;;;;4994893;28;20046;-56
2021/04/04 05:39:34;;;;;;;17.75;4.78;;;;;;;;;;4966283;28;20049;-58
2021/04/04 05:42:01;;;;;;;21.58;4.70;;;;;;;;;;4964559;28;20142;-57
2021/04/04 05:44:31;;;;;;;17.92;5.00;;;;;;;;;;4963766;28;20058;-57
2021/04/04 05:47:06;;;;;;;15.52;4.45;;;;;;;;;;4964083;28;20043;-58
2021/04/04 05:49:38;;;;;;;23.30;5.60;;;;;;;;;;4965859;28;20529;-57
2021/04/04 05:52:06;;;;;;;19.43;5.00;;;;;;;;;;4965184;28;20042;-55
2021/04/04 05:54:50;;;;;;;26.52;6.72;;;;;;;;;;4964583;28;20272;-57
2021/04/04 05:57:19;;;;;;;22.55;5.50;;;;;;;;;;4963712;28;20077;-59
2021/04/04 05:59:51;;;;;;;32.13;5.25;;;;;;;;;;4996486;28;20039;-57
2021/04/04 06:02:17;;;;;;;32.97;6.20;;;;;;;;;;4964379;28;20046;-56
2021/04/04 06:05:03;;;;;;;24.55;5.35;;;;;;;;;;4966418;28;20076;-57
2021/04/04 06:07:47;;;;;;;22.45;5.20;;;;;;;;;;4963244;28;20039;-57
2021/04/04 06:10:18;;;;;;;17.38;5.20;;;;;;;;;;4960938;28;20792;-56
2021/04/04 06:13:05;;;;;;;28.23;5.93;;;;;;;;;;4962341;28;20081;-56
2021/04/04 06:15:31;;;;;;;18.27;4.82;;;;;;;;;;4964480;28;20054;-57
2021/04/04 06:18:19;;;;;;;20.13;5.22;;;;;;;;;;4962625;28;20400;-56
2021/04/04 06:20:45;;;;;;;26.38;6.07;;;;;;;;;;4961865;28;20042;-54
2021/04/04 06:23:16;;;;;;;16.92;4.97;;;;;;;;;;4962134;28;20049;-58
2021/04/04 06:26:01;;;;;;;16.88;5.28;;;;;;;;;;4961196;28;20035;-57
2021/04/04 06:28:31;;;;;;;19.25;5.57;;;;;;;;;;4962046;28;20043;-58
2021/04/04 06:31:15;;;;;;;16.83;5.50;;;;;;;;;;4963768;28;20066;-59
2021/04/04 06:33:42;;;;;;;21.25;5.72;;;;;;;;;;4962980;28;22062;-58
2021/04/04 06:36:24;;;;;;;15.32;5.28;;;;;;;;;;4962751;28;20412;-59
2021/04/04 06:39:03;;;;;;;24.40;5.32;;;;;;;;;;4965360;28;20041;-58
2021/04/04 06:41:36;;;;;;;21.38;5.20;;;;;;;;;;4964272;28;20047;-58
2021/04/04 06:44:11;;;;;;;14.43;4.88;;;;;;;;;;4963849;28;20208;-59
2021/04/04 06:46:40;;;;;;;20.33;6.03;;;;;;;;;;4960495;28;20046;-58
2021/04/04 06:49:15;;;;;;;20.23;5.03;;;;;;;;;;4963775;28;20054;-58
2021/04/04 06:51:47;;;;;;;23.38;5.82;;;;;;;;;;4961608;28;20039;-57
2021/04/04 06:54:31;;;;;;;22.83;4.60;;;;;;;;;;4962940;28;20046;-59
2021/04/04 06:56:57;;;;;;;22.23;4.82;;;;;;;;;;4961158;28;20055;-56
2021/04/04 06:59:29;;;;;;;22.02;5.03;;;;;;;;;;4961097;28;20038;-58
2021/04/04 07:02:05;;;;;;;15.55;5.10;;;;;;;;;;4962544;28;20059;-59
2021/04/04 07:04:31;;;;;;;17.70;5.07;;;;;;;;;;4961019;28;20053;-59
2021/04/04 07:07:03;;;;;;;14.93;5.03;;;;;;;;;;4961050;28;20042;-58
2021/04/04 07:09:48;;;;;;;15.45;5.22;;;;;;;;;;4963012;28;20137;-59
2021/04/04 07:12:21;;;;;;;12.95;4.78;;;;;;;;;;4959719;28;20502;-58
2021/04/04 07:15:06;;;;;;;14.23;4.85;;;;;;;;;;4962169;28;20067;-54
2021/04/04 07:17:50;;;;;;;16.55;6.30;;;;;;;;;;4962462;28;20126;-58
2021/04/04 07:20:40;;;;;;;14.25;4.50;;;;;;;;;;4959700;28;20046;-56
2021/04/04 07:23:20;;;;;;;12.88;4.95;;;;;;;;;;4961756;28;20121;-58
2021/04/04 07:25:52;;;;;;;12.82;4.18;;;;;;;;;;4961783;28;20043;-58
2021/04/04 07:28:36;;;;;;;13.93;4.85;;;;;;;;;;4962622;28;20100;-57
2021/04/04 07:31:09;;;;;;;17.00;4.82;;;;;;;;;;4962578;28;20051;-58
2021/04/04 07:33:40;;;;;;;20.70;4.70;;;;;;;;;;4959988;28;20062;-59
2021/04/04 07:36:09;;;;;;;38.00;7.00;;;;;;;;;;4961530;28;20038;-57
2021/04/04 07:38:57;;;;;;;19.60;4.90;;;;;;;;;;4962087;28;20624;-58
2021/04/04 07:41:43;;;;;;;17.95;4.40;;;;;;;;;;4961577;28;20053;-58
2021/04/04 07:44:16;;;;;;;21.80;4.72;;;;;;;;;;4962513;28;20046;-58
2021/04/04 07:47:02;;;;;;;11.40;4.30;;;;;;;;;;4961164;28;20043;-56
2021/04/04 07:49:38;;;;;;;11.30;3.47;;;;;;;;;;4959355;28;20086;-58
2021/04/04 07:52:10;;;;;;;11.93;3.65;;;;;;;;;;4962768;28;20516;-57
2021/04/04 07:54:42;;;;;;;11.77;3.83;;;;;;;;;;4961977;28;20039;-58
2021/04/04 07:57:12;;;;;;;19.95;3.90;;;;;;;;;;4959764;28;20483;-58
2021/04/04 07:59:41;;;;;;;11.75;3.20;;;;;;;;;;4961526;28;20135;-58
2021/04/04 08:02:11;;;;;;;19.67;3.88;;;;;;;;;;4961684;28;20053;-53
2021/04/04 08:04:45;;;;;;;17.33;3.63;;;;;;;;;;4961944;28;20046;-54
2021/04/04 08:07:22;;;;;;;9.35;3.30;;;;;;;;;;4961530;28;20500;-58
2021/04/04 08:09:48;;;;;;;14.48;3.03;;;;;;;;;;4961463;28;20046;-57
2021/04/04 08:12:26;;;;;;;8.93;2.90;;;;;;;;;;4960239;28;20046;-57
2021/04/04 08:14:58;;;;;;;11.82;2.85;;;;;;;;;;4962288;28;20126;-57
2021/04/04 08:17:24;;;;;;;7.68;2.63;;;;;;;;;;4962954;28;20038;-57
2021/04/04 08:20:00;;;;;;;8.85;2.83;;;;;;;;;;4962104;28;20122;-58
2021/04/04 08:22:38;;;;;;;8.82;2.90;;;;;;;;;;4953339;28;20070;-56
2021/04/04 08:25:12;;;;;;;14.50;3.08;;;;;;;;;;4962615;28;20964;-55
2021/04/04 08:27:50;;;;;;;13.30;3.20;;;;;;;;;;4961520;28;20137;-56
2021/04/04 08:30:18;;;;;;;23.17;3.20;;;;;;;;;;4960776;28;20055;-57
2021/04/04 08:32:47;;;;;;;13.02;3.22;;;;;;;;;;4959649;28;20038;-57
2021/04/04 08:35:19;;;;;;;11.93;3.05;;;;;;;;;;4960861;28;20039;-57
2021/04/04 08:37:48;;;;;;;10.10;2.90;;;;;;;;;;4960258;28;20252;-56
2021/04/04 08:40:14;;;;;;;12.00;3.63;;;;;;;;;;4961653;28;20156;-57
2021/04/04 08:42:41;;;;;;;7.53;3.00;;;;;;;;;;4961532;28;20061;-57
2021/04/04 08:45:20;;;;;;;8.93;2.97;;;;;;;;;;4992697;28;20057;-57
2021/04/04 08:47:47;;;;;;;12.43;2.75;;;;;;;;;;4958926;28;20102;-57
2021/04/04 08:50:19;;;;;;;8.93;3.00;;;;;;;;;;4962331;28;20075;-57
2021/04/04 08:52:45;;;;;;;10.40;3.03;;;;;;;;;;4963285;28;20082;-54
2021/04/04 08:55:13;;;;;;;10.48;3.17;;;;;;;;;;4960650;28;20118;-57
2021/04/04 08:57:39;;;;;;;10.85;3.00;;;;;;;;;;4961095;28;20113;-57
2021/04/04 09:00:08;;;;;;;13.30;3.28;;;;;;;;;;4962338;28;20458;-57
2021/04/04 09:02:44;;;;;;;9.60;3.50;;;;;;;;;;4960862;28;20054;-57
2021/04/04 09:05:11;;;;;;;10.00;3.45;;;;;;;;;;4962547;28;20113;-58
2021/04/04 09:07:44;;;;;;;9.60;3.20;;;;;;;;;;4961208;28;20050;-56
2021/04/04 09:10:11;;;;;;;9.65;3.10;;;;;;;;;;4961175;28;21857;-58
2021/04/04 09:12:40;;;;;;;11.35;2.83;;;;;;;;;;4961569;28;20759;-58
2021/04/04 09:15:10;;;;;;;9.43;3.17;;;;;;;;;;4962891;28;20519;-58
2021/04/04 09:17:36;;;;;;;12.93;2.63;;;;;;;;;;4961248;28;20797;-58
2021/04/04 09:20:05;;;;;;;8.75;2.63;;;;;;;;;;4964647;28;20050;-58
2021/04/04 09:22:31;;;;;;;11.40;2.85;;;;;;;;;;4960948;28;20085;-59
2021/04/04 09:25:05;;;;;;;9.43;2.95;;;;;;;;;;4960896;28;20070;-58
2021/04/04 09:27:34;;;;;;;12.02;3.70;;;;;;;;;;4958803;28;20046;-57
2021/04/04 09:30:01;;;;;;;11.48;2.75;;;;;;;;;;4959807;28;20080;-59
2021/04/04 09:32:27;;;;;;;9.15;3.10;;;;;;;;;;4964001;28;20039;-58
2021/04/04 09:34:53;;;;;;;7.97;2.53;;;;;;;;;;4964861;28;20038;-59
2021/04/04 09:37:23;;;;;;;7.00;2.25;;;;;;;;;;4964037;28;20034;-57
2021/04/04 09:39:49;;;;;;;7.05;2.28;;;;;;;;;;4965008;28;20081;-58
2021/04/04 09:42:15;;;;;;;12.88;3.60;;;;;;;;;;4963009;28;20595;-57
2021/04/04 09:44:41;;;;;;;9.73;2.30;;;;;;;;;;4963380;28;20043;-55
2021/04/04 09:47:07;;;;;;;6.60;2.20;;;;;;;;;;4964237;28;20049;-59
2021/04/04 09:49:36;;;;;;;9.25;2.35;;;;;;;;;;4964671;28;20047;-58
2021/04/04 09:52:24;;;;;;;8.70;1.90;;;;;;;;;;4965615;28;20038;-58
2021/04/04 09:54:59;;;;;;;8.30;1.63;;;;;;;;;;4995531;28;20046;-58
2021/04/04 09:57:25;;;;;;;6.63;2.00;;;;;;;;;;4963640;28;20062;-58
2021/04/04 09:59:51;;;;;;;7.65;1.73;;;;;;;;;;4965545;28;20043;-58
2021/04/04 10:02:36;;;;;;;6.28;1.50;;;;;;;;;;4963023;28;20049;-58
2021/04/04 10:05:03;;;;;;;8.68;1.70;;;;;;;;;;4964412;28;20031;-58
2021/04/04 10:07:30;;;;;;;9.43;1.90;;;;;;;;;;4962185;28;20038;-57
2021/04/04 10:09:56;;;;;;;5.60;1.80;;;;;;;;;;4963049;28;20476;-59
2021/04/04 10:12:22;;;;;;;11.38;1.80;;;;;;;;;;4965463;28;20085;-57
2021/04/04 10:15:00;;;;;;;7.38;1.90;;;;;;;;;;4954159;28;20926;-57
2021/04/04 10:17:26;;;;;;;7.93;2.03;;;;;;;;;;4964744;28;20042;-58
2021/04/04 10:19:55;;;;;;;4.90;1.40;;;;;;;;;;4966719;28;20154;-59
2021/04/04 10:22:21;;;;;;;9.95;1.90;;;;;;;;;;4964239;28;20106;-58
2021/04/04 10:24:49;;;;;;;6.75;1.90;;;;;;;;;;4963538;28;20039;-59
2021/04/04 10:27:34;;;;;;;6.70;1.60;;;;;;;;;;4998924;28;20033;-57
2021/04/04 10:30:03;;;;;;;8.13;1.83;;;;;;;;;;5000333;28;20563;-58
2021/04/04 10:32:29;;;;;;;8.00;1.50;;;;;;;;;;4999288;28;20411;-59
2021/04/04 10:34:55;;;;;;;8.13;1.50;;;;;;;;;;5000098;28;20042;-57
2021/04/04 10:37:25;;;;;;;4.25;1.25;;;;;;;;;;4997282;28;20823;-59
2021/04/04 10:40:00;;;;;;;5.88;1.80;;;;;;;;;;4980753;28;20045;-57
2021/04/04 10:42:27;;;;;;;10.23;2.15;;;;;;;;;;4998332;28;20376;-59
2021/04/04 10:45:12;;;;;;;4.82;1.90;;;;;;;;;;4999844;28;20574;-59
2021/04/04 10:47:39;;;;;;;7.25;1.98;;;;;;;;;;4999394;28;20065;-59
2021/04/04 10:50:10;;;;;;;6.97;1.80;;;;;;;;;;4998236;28;20053;-56
2021/04/04 10:52:39;;;;;;;7.60;2.25;;;;;;;;;;4998970;28;20065;-58
2021/04/04 10:55:06;;;;;;;7.55;2.10;;;;;;;;;;4998139;28;20048;-59
2021/04/04 10:57:33;;;;;;;6.97;1.90;;;;;;;;;;4996829;28;20052;-58
2021/04/04 10:59:59;;;;;;;7.55;1.98;;;;;;;;;;4998768;28;20096;-59
2021/04/04 11:02:25;;;;;;;8.77;2.00;;;;;;;;;;4999507;28;20053;-58
2021/04/04 11:04:52;;;;;;;9.48;2.20;;;;;;;;;;4985524;28;20048;-57
2021/04/04 11:07:18;;;;;;;8.02;2.20;;;;;;;;;;4963369;28;20473;-58
2021/04/04 11:09:46;;;;;;;10.05;2.63;;;;;;;;;;4962457;28;20038;-57
2021/04/04 11:12:12;;;;;;;7.72;1.75;;;;;;;;;;4962203;28;20045;-58
2021/04/04 11:14:39;;;;;;;10.30;2.33;;;;;;;;;;4962657;28;20074;-57
2021/04/04 11:17:05;;;;;;;9.98;2.35;;;;;;;;;;4963243;28;20407;-58
2021/04/04 11:19:31;;;;;;;7.10;2.03;;;;;;;;;;4962348;28;20898;-58
2021/04/04 11:21:59;;;;;;;8.65;2.03;;;;;;;;;;4964249;28;20052;-56
2021/04/04 11:24:25;;;;;;;6.05;1.77;;;;;;;;;;4961249;28;20042;-56
2021/04/04 11:26:54;;;;;;;7.45;1.83;;;;;;;;;;4963020;28;20051;-58
2021/04/04 11:29:21;;;;;;;7.15;1.75;;;;;;;;;;4962277;28;20161;-58
2021/04/04 11:31:46;;;;;;;7.38;2.00;;;;;;;;;;4961852;28;20042;-59
2021/04/04 11:34:27;;;;;;;9.13;2.08;;;;;;;;;;4963042;28;20035;-55
2021/04/04 11:36:53;;;;;;;7.57;2.42;;;;;;;;;;4962081;28;20579;-56
2021/04/04 11:39:19;;;;;;;9.70;3.20;;;;;;;;;;4960881;28;20133;-57
2021/04/04 11:41:46;;;;;;;6.95;1.88;;;;;;;;;;4962252;28;20138;-57
2021/04/04 11:44:17;;;;;;;8.55;2.10;;;;;;;;;;4963952;28;20137;-56
2021/04/04 11:46:54;;;;;;;6.22;1.92;;;;;;;;;;4961738;28;20491;-57
2021/04/04 11:49:33;;;;;;;10.45;2.47;;;;;;;;;;4962209;28;20065;-57
2021/04/04 11:52:08;;;;;;;6.03;1.83;;;;;;;;;;4998536;28;20048;-57
2021/04/04 11:54:52;;;;;;;9.18;2.00;;;;;;;;;;4997071;28;20328;-55
2021/04/04 11:57:26;;;;;;;8.88;1.90;;;;;;;;;;4996828;28;20057;-56
2021/04/04 11:59:55;;;;;;;8.48;1.92;;;;;;;;;;4997365;28;20034;-55
2021/04/04 12:02:25;;;;;;;5.57;2.10;;;;;;;;;;4996537;28;20034;-58
2021/04/04 12:05:01;;;;;;;6.22;2.20;;;;;;;;;;5001474;28;20044;-57
2021/04/04 12:07:28;;;;;;;6.85;1.83;;;;;;;;;;4999959;28;20099;-55
2021/04/04 12:09:54;;;;;;;6.10;1.98;;;;;;;;;;4997814;28;20136;-57
2021/04/04 12:12:20;;;;;;;5.85;2.20;;;;;;;;;;4998699;28;20193;-57
2021/04/04 12:14:52;;;;;;;17.65;2.67;;;;;;;;;;5000784;28;20850;-58
2021/04/04 12:17:22;;;;;;;15.80;3.40;;;;;;;;;;4998328;28;20661;-57
2021/04/04 12:19:48;;;;;;;7.95;2.03;;;;;;;;;;4999840;28;20808;-58
2021/04/04 12:22:15;;;;;;;7.05;2.17;;;;;;;;;;4998531;28;20122;-57
2021/04/04 12:24:47;;;;;;;10.32;2.38;;;;;;;;;;4998603;28;20041;-57
2021/04/04 12:27:14;;;;;;;9.50;2.47;;;;;;;;;;4996725;28;21044;-58
2021/04/04 12:29:47;;;;;;;10.38;2.63;;;;;;;;;;4975809;28;20047;-57
2021/04/04 12:32:23;;;;;;;9.07;2.63;;;;;;;;;;4962273;28;20406;-55
2021/04/04 12:34:51;;;;;;;9.15;2.38;;;;;;;;;;4962331;28;20050;-57
2021/04/04 12:37:19;;;;;;;12.55;3.08;;;;;;;;;;4958481;28;20039;-52
2021/04/04 12:39:44;;;;;;;10.82;2.88;;;;;;;;;;4961040;28;20050;-55
2021/04/04 12:42:11;;;;;;;10.32;3.10;;;;;;;;;;4961000;28;20039;-57
2021/04/04 12:44:41;;;;;;;9.13;3.25;;;;;;;;;;4957669;28;20049;-56
2021/04/04 12:47:07;;;;;;;9.85;3.17;;;;;;;;;;4963512;28;20408;-58
2021/04/04 12:49:34;;;;;;;11.25;2.72;;;;;;;;;;4960794;28;20061;-57
2021/04/04 12:51:59;;;;;;;9.77;3.05;;;;;;;;;;4963099;28;20034;-57
2021/04/04 12:54:26;;;;;;;15.27;3.03;;;;;;;;;;4960852;28;20523;-55
2021/04/04 12:56:52;;;;;;;9.02;3.08;;;;;;;;;;4961103;28;20050;-55
2021/04/04 12:59:18;;;;;;;9.20;2.80;;;;;;;;;;4959939;28;20050;-57
2021/04/04 13:01:44;;;;;;;11.60;2.90;;;;;;;;;;4962164;28;20062;-58
2021/04/04 13:04:27;;;;;;;20.10;3.92;;;;;;;;;;4961084;28;20053;-57
2021/04/04 13:06:57;;;;;;;14.35;3.50;;;;;;;;;;4963875;28;20047;-57
2021/04/04 13:09:23;;;;;;;12.02;2.75;;;;;;;;;;4963531;28;20061;-57
2021/04/04 13:11:49;;;;;;;8.95;2.95;;;;;;;;;;4966410;28;20042;-55
2021/04/04 13:14:24;;;;;;;8.98;2.70;;;;;;;;;;4965040;28;20051;-55
2021/04/04 13:16:56;;;;;;;8.00;2.47;;;;;;;;;;4965404;28;20129;-55
2021/04/04 13:19:22;;;;;;;8.13;2.58;;;;;;;;;;4965082;28;20074;-57
2021/04/04 13:21:48;;;;;;;6.72;2.47;;;;;;;;;;4964046;28;20046;-56
2021/04/04 13:24:15;;;;;;;12.60;2.30;;;;;;;;;;4966963;28;20163;-56
2021/04/04 13:26:46;;;;;;;10.65;2.45;;;;;;;;;;4965429;28;20035;-56
2021/04/04 13:29:13;;;;;;;4.03;1.50;;;;;;;;;;4964681;28;20055;-57
2021/04/04 13:31:39;;;;;;;7.80;2.13;;;;;;;;;;4964234;28;20039;-57
2021/04/04 13:34:07;;;;;;;8.30;2.38;;;;;;;;;;4965208;28;20403;-55
2021/04/04 13:36:34;;;;;;;9.68;2.30;;;;;;;;;;4965698;28;20066;-57
2021/04/04 13:39:01;;;;;;;8.57;2.28;;;;;;;;;;4964159;28;20884;-57
2021/04/04 13:41:27;;;;;;;9.23;2.17;;;;;;;;;;4963672;28;20472;-56
2021/04/04 13:43:54;;;;;;;9.38;2.00;;;;;;;;;;4963164;28;20081;-57
2021/04/04 13:46:31;;;;;;;8.98;1.77;;;;;;;;;;4963758;28;20047;-56
2021/04/04 13:48:58;;;;;;;6.78;1.58;;;;;;;;;;4964183;28;20142;-55
2021/04/04 13:51:24;;;;;;;4.70;1.70;;;;;;;;;;4962306;28;20657;-57
2021/04/04 13:54:00;;;;;;;4.97;1.60;;;;;;;;;;4964912;28;20054;-55
2021/04/04 13:56:33;;;;;;;5.57;1.27;;;;;;;;;;4961599;28;20101;-58
2021/04/04 13:59:08;;;;;;;5.35;1.45;;;;;;;;;;4964135;28;20433;-57
2021/04/04 14:01:34;;;;;;;6.32;1.30;;;;;;;;;;4964530;28;20057;-57
2021/04/04 14:04:02;;;;;;;3.53;1.00;;;;;;;;;;4963783;28;20121;-55
2021/04/04 14:06:35;;;;;;;8.63;1.60;;;;;;;;;;4963712;28;20039;-57
2021/04/04 14:09:02;;;;;;;3.63;1.20;;;;;;;;;;4964774;28;20043;-57
2021/04/04 14:11:27;;;;;;;4.25;1.40;;;;;;;;;;4963028;28;20045;-54
2021/04/04 14:13:53;;;;;;;7.47;0.90;;;;;;;;;;4964786;28;20038;-57
2021/04/04 14:16:19;;;;;;;3.88;0.80;;;;;;;;;;4963540;28;20038;-57
2021/04/04 14:18:47;;;;;;;3.67;0.95;;;;;;;;;;4964652;28;20497;-58
2021/04/04 14:21:12;;;;;;;2.83;0.80;;;;;;;;;;4963592;28;20034;-57
2021/04/04 14:23:39;;;;;;;2.95;0.93;;;;;;;;;;4962575;28;20043;-57
2021/04/04 14:26:05;;;;;;;4.55;0.80;;;;;;;;;;4961938;28;20039;-54
2021/04/04 14:28:32;;;;;;;5.32;1.02;;;;;;;;;;4962717;28;20031;-57
2021/04/04 14:30:58;;;;;;;3.38;0.90;;;;;;;;;;4963192;28;20571;-55
2021/04/04 14:33:24;;;;;;;3.60;0.88;;;;;;;;;;4963851;28;20034;-57
2021/04/04 14:35:50;;;;;;;5.20;0.82;;;;;;;;;;4965494;28;20038;-54
2021/04/04 14:38:17;;;;;;;3.70;0.85;;;;;;;;;;4964364;28;20138;-57
2021/04/04 14:40:43;;;;;;;3.60;0.88;;;;;;;;;;4963026;28;20062;-57
2021/04/04 14:45:53;;;;;;;3.55;1.48;;;;;;;;;;4963122;28;20572;-57
2021/04/04 14:48:20;;;;;;;3.55;0.73;;;;;;;;;;4963202;28;20098;-58
2021/04/04 14:50:46;;;;;;;3.33;0.75;;;;;;;;;;4952305;28;20046;-56